DIJ weather

Dijon-Bourgogne Airport
Dijon/Longvic, Burgundy, France

Public forecast

Using degrees Celsius for public forecast. Weather courtesy of forecast.io.

METAR (pilot weather report)

Retrieved 2019/05/27 12:30 UTC (2 minutes ago):

LFSD 271230Z AUTO 10004KT 9999 -RADZ FEW022 BKN056 OVC068 16/14 Q1012

TAF (pilot weather forecast)

Forecast is more than 12 hours old.

Retrieved 2015/06/01 00:11 UTC (4 years ago):

TAF LFSD 010600Z 0100/0124 CNL